If you wish to contribute or participate in the discussions about articles you are invited to join SKYbrary as a registered user

 Actions

Dobbins Air Reserve Base Airport

From SKYbrary Wiki

KMGE
Airport
ICAO: KMGE – IATA: MGE
Summary
Name Dobbins Air Reserve Base Airport
Region
Territory "KM" is not in the list (AG, AN, AY, BG, BI, BK, C, CT, DA, DB, ...) of allowed values for the "ICAO Territory" property.
Location , Georgia
Serving Marietta
Elevation 325.526 m
1,068 ft
1,068 ft325.526 m
Type large airport
Coordinates 33° 54' 55.38" N, 84° 30' 58.75" W
Runways
Designator Length Width Surface ROPS
11/29 3048 m10,000 ft
91 m298.556 ft
CON yes/yes
110/290 1219 m3,999.344 ft
18 m59.055 ft
ASPH /


METAR
Observation KMGE 172256Z 32005KT 10SM SCT250 16/02 A2995 RMK AO2A SLP143 T01580019 $
Station Marietta / Dobbins Air Force Base
Date/Time 17 October 2019 22:56:00
Wind direction 320°
Wind speed 05 kts
Lowest cloud amount scattered clouds
Temperature 15.8°C
Dew point 1.9°C
Humidity 39%
QNH hPa
Weather condition n/a